sensor_id;sensor_type;location;lat;lon;timestamp;P1;durP1;ratioP1;P2;durP2;ratioP2
27495;SDS011;14929;51.336;9.416;2023-05-07T00:01:20;4.93;;;4.45;;
27495;SDS011;14929;51.336;9.416;2023-05-07T00:03:47;7.10;;;5.43;;
27495;SDS011;14929;51.336;9.416;2023-05-07T00:06:14;5.38;;;4.95;;
27495;SDS011;14929;51.336;9.416;2023-05-07T00:08:42;5.47;;;4.97;;
27495;SDS011;14929;51.336;9.416;2023-05-07T00:11:11;5.80;;;5.30;;
27495;SDS011;14929;51.336;9.416;2023-05-07T00:13:38;5.10;;;4.70;;
27495;SDS011;14929;51.336;9.416;2023-05-07T00:16:06;6.03;;;5.53;;
27495;SDS011;14929;51.336;9.416;2023-05-07T00:18:33;4.72;;;4.38;;
27495;SDS011;14929;51.336;9.416;2023-05-07T00:21:01;6.32;;;5.78;;
27495;SDS011;14929;51.336;9.416;2023-05-07T00:23:28;5.75;;;5.22;;
27495;SDS011;14929;51.336;9.416;2023-05-07T00:25:56;5.35;;;4.95;;
27495;SDS011;14929;51.336;9.416;2023-05-07T00:28:25;5.32;;;4.93;;
27495;SDS011;14929;51.336;9.416;2023-05-07T00:30:52;5.53;;;5.13;;
27495;SDS011;14929;51.336;9.416;2023-05-07T00:33:20;5.43;;;4.20;;
27495;SDS011;14929;51.336;9.416;2023-05-07T00:35:48;4.97;;;4.47;;
27495;SDS011;14929;51.336;9.416;2023-05-07T00:38:15;6.10;;;5.40;;
27495;SDS011;14929;51.336;9.416;2023-05-07T00:40:43;6.85;;;6.25;;
27495;SDS011;14929;51.336;9.416;2023-05-07T00:43:10;6.18;;;5.57;;
27495;SDS011;14929;51.336;9.416;2023-05-07T00:45:39;6.28;;;5.70;;
27495;SDS011;14929;51.336;9.416;2023-05-07T00:48:06;6.38;;;5.78;;
27495;SDS011;14929;51.336;9.416;2023-05-07T00:50:34;5.72;;;5.10;;
27495;SDS011;14929;51.336;9.416;2023-05-07T00:53:01;5.60;;;5.05;;
27495;SDS011;14929;51.336;9.416;2023-05-07T00:55:29;5.80;;;5.30;;
27495;SDS011;14929;51.336;9.416;2023-05-07T00:57:56;6.35;;;5.82;;
27495;SDS011;14929;51.336;9.416;2023-05-07T01:00:24;6.18;;;5.57;;
27495;SDS011;14929;51.336;9.416;2023-05-07T01:02:53;5.80;;;5.30;;
27495;SDS011;14929;51.336;9.416;2023-05-07T01:05:20;6.43;;;5.93;;
27495;SDS011;14929;51.336;9.416;2023-05-07T01:07:50;7.75;;;7.05;;
27495;SDS011;14929;51.336;9.416;2023-05-07T01:10:20;7.63;;;6.50;;
27495;SDS011;14929;51.336;9.416;2023-05-07T01:12:47;6.40;;;5.88;;
27495;SDS011;14929;51.336;9.416;2023-05-07T01:15:15;8.02;;;6.40;;
27495;SDS011;14929;51.336;9.416;2023-05-07T01:17:43;6.25;;;5.63;;
27495;SDS011;14929;51.336;9.416;2023-05-07T01:20:12;6.93;;;6.32;;
27495;SDS011;14929;51.336;9.416;2023-05-07T01:22:42;6.45;;;5.95;;
27495;SDS011;14929;51.336;9.416;2023-05-07T01:25:10;6.82;;;6.22;;
27495;SDS011;14929;51.336;9.416;2023-05-07T01:27:38;6.32;;;5.75;;
27495;SDS011;14929;51.336;9.416;2023-05-07T01:30:06;6.25;;;5.70;;
27495;SDS011;14929;51.336;9.416;2023-05-07T01:32:36;6.88;;;6.22;;
27495;SDS011;14929;51.336;9.416;2023-05-07T01:35:09;7.47;;;6.78;;
27495;SDS011;14929;51.336;9.416;2023-05-07T01:37:41;8.75;;;7.90;;
27495;SDS011;14929;51.336;9.416;2023-05-07T01:40:09;7.63;;;6.90;;
27495;SDS011;14929;51.336;9.416;2023-05-07T01:42:37;6.57;;;6.00;;
27495;SDS011;14929;51.336;9.416;2023-05-07T01:45:05;6.82;;;6.22;;
27495;SDS011;14929;51.336;9.416;2023-05-07T01:47:34;7.15;;;6.45;;
27495;SDS011;14929;51.336;9.416;2023-05-07T01:50:02;9.27;;;7.70;;
27495;SDS011;14929;51.336;9.416;2023-05-07T01:52:33;7.18;;;6.47;;
27495;SDS011;14929;51.336;9.416;2023-05-07T01:55:02;8.32;;;6.78;;
27495;SDS011;14929;51.336;9.416;2023-05-07T01:57:31;8.23;;;7.43;;
27495;SDS011;14929;51.336;9.416;2023-05-07T01:59:58;7.18;;;6.38;;
27495;SDS011;14929;51.336;9.416;2023-05-07T02:02:26;6.28;;;5.72;;
27495;SDS011;14929;51.336;9.416;2023-05-07T02:04:53;7.88;;;7.07;;
27495;SDS011;14929;51.336;9.416;2023-05-07T02:07:21;7.82;;;6.47;;
27495;SDS011;14929;51.336;9.416;2023-05-07T02:09:48;7.93;;;6.95;;
27495;SDS011;14929;51.336;9.416;2023-05-07T02:12:17;7.65;;;6.90;;
27495;SDS011;14929;51.336;9.416;2023-05-07T02:14:44;8.25;;;7.35;;
27495;SDS011;14929;51.336;9.416;2023-05-07T02:17:12;7.70;;;7.00;;
27495;SDS011;14929;51.336;9.416;2023-05-07T02:19:39;7.38;;;6.68;;
27495;SDS011;14929;51.336;9.416;2023-05-07T02:22:07;6.80;;;6.10;;
27495;SDS011;14929;51.336;9.416;2023-05-07T02:24:35;7.45;;;6.32;;
27495;SDS011;14929;51.336;9.416;2023-05-07T02:27:03;9.40;;;8.00;;
27495;SDS011;14929;51.336;9.416;2023-05-07T02:29:32;7.55;;;6.95;;
27495;SDS011;14929;51.336;9.416;2023-05-07T02:31:59;6.75;;;6.15;;
27495;SDS011;14929;51.336;9.416;2023-05-07T02:34:27;5.90;;;5.35;;
27495;SDS011;14929;51.336;9.416;2023-05-07T02:36:54;5.63;;;5.13;;
27495;SDS011;14929;51.336;9.416;2023-05-07T02:39:22;5.32;;;4.82;;
27495;SDS011;14929;51.336;9.416;2023-05-07T02:41:49;7.60;;;6.82;;
27495;SDS011;14929;51.336;9.416;2023-05-07T02:44:17;6.00;;;5.22;;
27495;SDS011;14929;51.336;9.416;2023-05-07T02:46:45;5.43;;;4.93;;
27495;SDS011;14929;51.336;9.416;2023-05-07T02:49:13;5.28;;;4.80;;
27495;SDS011;14929;51.336;9.416;2023-05-07T02:51:40;5.20;;;4.80;;
27495;SDS011;14929;51.336;9.416;2023-05-07T02:54:08;8.20;;;7.40;;
27495;SDS011;14929;51.336;9.416;2023-05-07T02:56:35;6.53;;;5.93;;
27495;SDS011;14929;51.336;9.416;2023-05-07T02:59:03;4.93;;;4.53;;
27495;SDS011;14929;51.336;9.416;2023-05-07T03:01:30;7.53;;;6.75;;
27495;SDS011;14929;51.336;9.416;2023-05-07T03:03:59;5.32;;;4.82;;
27495;SDS011;14929;51.336;9.416;2023-05-07T03:06:27;6.50;;;5.80;;
27495;SDS011;14929;51.336;9.416;2023-05-07T03:08:54;6.78;;;6.18;;
27495;SDS011;14929;51.336;9.416;2023-05-07T03:11:22;8.88;;;8.02;;
27495;SDS011;14929;51.336;9.416;2023-05-07T03:13:49;6.75;;;6.10;;
27495;SDS011;14929;51.336;9.416;2023-05-07T03:16:17;5.25;;;4.85;;
27495;SDS011;14929;51.336;9.416;2023-05-07T03:18:44;6.53;;;5.93;;
27495;SDS011;14929;51.336;9.416;2023-05-07T03:21:13;6.85;;;6.05;;
27495;SDS011;14929;51.336;9.416;2023-05-07T03:23:41;8.15;;;7.32;;
27495;SDS011;14929;51.336;9.416;2023-05-07T03:26:08;6.43;;;5.82;;
27495;SDS011;14929;51.336;9.416;2023-05-07T03:28:36;6.63;;;5.93;;
27495;SDS011;14929;51.336;9.416;2023-05-07T03:31:03;10.32;;;9.30;;
27495;SDS011;14929;51.336;9.416;2023-05-07T03:33:32;10.15;;;9.10;;
27495;SDS011;14929;51.336;9.416;2023-05-07T03:36:00;10.40;;;9.25;;
27495;SDS011;14929;51.336;9.416;2023-05-07T03:38:29;8.23;;;7.40;;
27495;SDS011;14929;51.336;9.416;2023-05-07T03:40:56;7.82;;;7.13;;
27495;SDS011;14929;51.336;9.416;2023-05-07T03:43:24;10.15;;;9.02;;
27495;SDS011;14929;51.336;9.416;2023-05-07T03:45:51;9.32;;;8.52;;
27495;SDS011;14929;51.336;9.416;2023-05-07T03:48:19;9.68;;;8.57;;
27495;SDS011;14929;51.336;9.416;2023-05-07T03:50:46;9.60;;;7.88;;
27495;SDS011;14929;51.336;9.416;2023-05-07T03:53:13;10.65;;;9.63;;
27495;SDS011;14929;51.336;9.416;2023-05-07T03:55:42;11.18;;;9.57;;
27495;SDS011;14929;51.336;9.416;2023-05-07T03:58:10;9.65;;;8.65;;
27495;SDS011;14929;51.336;9.416;2023-05-07T04:00:37;9.70;;;8.70;;
27495;SDS011;14929;51.336;9.416;2023-05-07T04:03:05;10.73;;;9.40;;
27495;SDS011;14929;51.336;9.416;2023-05-07T04:05:33;12.85;;;11.02;;
27495;SDS011;14929;51.336;9.416;2023-05-07T04:08:01;11.18;;;9.27;;
27495;SDS011;14929;51.336;9.416;2023-05-07T04:10:29;10.80;;;9.75;;
27495;SDS011;14929;51.336;9.416;2023-05-07T04:12:58;10.65;;;9.65;;
27495;SDS011;14929;51.336;9.416;2023-05-07T04:15:25;9.98;;;8.98;;
27495;SDS011;14929;51.336;9.416;2023-05-07T04:17:53;10.60;;;9.48;;
27495;SDS011;14929;51.336;9.416;2023-05-07T04:20:20;11.80;;;9.85;;
27495;SDS011;14929;51.336;9.416;2023-05-07T04:22:47;11.40;;;10.18;;
27495;SDS011;14929;51.336;9.416;2023-05-07T04:25:15;11.25;;;9.63;;
27495;SDS011;14929;51.336;9.416;2023-05-07T04:27:43;10.07;;;9.00;;
27495;SDS011;14929;51.336;9.416;2023-05-07T04:30:12;9.50;;;8.52;;
27495;SDS011;14929;51.336;9.416;2023-05-07T04:32:40;11.65;;;10.45;;
27495;SDS011;14929;51.336;9.416;2023-05-07T04:35:09;9.98;;;8.98;;
27495;SDS011;14929;51.336;9.416;2023-05-07T04:37:37;11.07;;;9.40;;
27495;SDS011;14929;51.336;9.416;2023-05-07T04:40:05;9.48;;;8.55;;
27495;SDS011;14929;51.336;9.416;2023-05-07T04:42:34;13.13;;;10.95;;
27495;SDS011;14929;51.336;9.416;2023-05-07T04:45:02;9.98;;;8.98;;
27495;SDS011;14929;51.336;9.416;2023-05-07T04:47:31;11.82;;;10.57;;
27495;SDS011;14929;51.336;9.416;2023-05-07T04:49:59;10.38;;;9.25;;
27495;SDS011;14929;51.336;9.416;2023-05-07T04:52:27;10.23;;;9.25;;
27495;SDS011;14929;51.336;9.416;2023-05-07T04:54:54;11.27;;;10.07;;
27495;SDS011;14929;51.336;9.416;2023-05-07T04:57:21;12.30;;;10.13;;
27495;SDS011;14929;51.336;9.416;2023-05-07T04:59:49;13.07;;;10.80;;
27495;SDS011;14929;51.336;9.416;2023-05-07T05:02:16;12.32;;;9.60;;
27495;SDS011;14929;51.336;9.416;2023-05-07T05:04:45;8.93;;;8.02;;
27495;SDS011;14929;51.336;9.416;2023-05-07T05:07:13;9.20;;;8.27;;
27495;SDS011;14929;51.336;9.416;2023-05-07T05:09:41;10.32;;;8.15;;
27495;SDS011;14929;51.336;9.416;2023-05-07T05:12:08;10.57;;;8.55;;
27495;SDS011;14929;51.336;9.416;2023-05-07T05:14:36;9.10;;;8.25;;
27495;SDS011;14929;51.336;9.416;2023-05-07T05:17:03;7.88;;;7.13;;
27495;SDS011;14929;51.336;9.416;2023-05-07T05:19:30;10.63;;;9.52;;
27495;SDS011;14929;51.336;9.416;2023-05-07T05:21:59;7.60;;;6.88;;
27495;SDS011;14929;51.336;9.416;2023-05-07T05:24:28;7.70;;;6.90;;
27495;SDS011;14929;51.336;9.416;2023-05-07T05:26:56;8.13;;;7.28;;
27495;SDS011;14929;51.336;9.416;2023-05-07T05:29:25;12.82;;;9.23;;
27495;SDS011;14929;51.336;9.416;2023-05-07T05:31:52;8.57;;;7.80;;
27495;SDS011;14929;51.336;9.416;2023-05-07T05:34:20;7.63;;;6.93;;
27495;SDS011;14929;51.336;9.416;2023-05-07T05:36:48;7.88;;;7.07;;
27495;SDS011;14929;51.336;9.416;2023-05-07T05:39:17;6.20;;;5.68;;
27495;SDS011;14929;51.336;9.416;2023-05-07T05:41:44;6.53;;;5.93;;
27495;SDS011;14929;51.336;9.416;2023-05-07T05:44:12;5.68;;;5.20;;
27495;SDS011;14929;51.336;9.416;2023-05-07T05:46:39;6.20;;;5.60;;
27495;SDS011;14929;51.336;9.416;2023-05-07T05:49:07;6.57;;;5.88;;
27495;SDS011;14929;51.336;9.416;2023-05-07T05:51:34;5.90;;;5.30;;
27495;SDS011;14929;51.336;9.416;2023-05-07T05:54:02;5.95;;;5.40;;
27495;SDS011;14929;51.336;9.416;2023-05-07T05:56:31;6.72;;;6.10;;
27495;SDS011;14929;51.336;9.416;2023-05-07T05:58:58;5.32;;;4.82;;
27495;SDS011;14929;51.336;9.416;2023-05-07T06:01:26;6.47;;;5.53;;
27495;SDS011;14929;51.336;9.416;2023-05-07T06:03:54;5.68;;;5.13;;
27495;SDS011;14929;51.336;9.416;2023-05-07T06:06:22;5.13;;;4.63;;
27495;SDS011;14929;51.336;9.416;2023-05-07T06:08:49;5.65;;;5.15;;
27495;SDS011;14929;51.336;9.416;2023-05-07T06:11:17;4.88;;;4.38;;
27495;SDS011;14929;51.336;9.416;2023-05-07T06:13:46;6.03;;;5.47;;
27495;SDS011;14929;51.336;9.416;2023-05-07T06:16:14;5.95;;;5.35;;
27495;SDS011;14929;51.336;9.416;2023-05-07T06:18:41;4.95;;;4.40;;
27495;SDS011;14929;51.336;9.416;2023-05-07T06:21:10;4.70;;;4.30;;
27495;SDS011;14929;51.336;9.416;2023-05-07T06:23:37;6.07;;;5.57;;
27495;SDS011;14929;51.336;9.416;2023-05-07T06:26:05;7.50;;;5.88;;
27495;SDS011;14929;51.336;9.416;2023-05-07T06:28:33;5.40;;;4.90;;
27495;SDS011;14929;51.336;9.416;2023-05-07T06:31:12;5.75;;;5.20;;
27495;SDS011;14929;51.336;9.416;2023-05-07T06:33:40;6.57;;;5.25;;
27495;SDS011;14929;51.336;9.416;2023-05-07T06:36:08;4.95;;;4.50;;
27495;SDS011;14929;51.336;9.416;2023-05-07T06:38:36;5.78;;;4.95;;
27495;SDS011;14929;51.336;9.416;2023-05-07T06:41:05;4.30;;;4.00;;
27495;SDS011;14929;51.336;9.416;2023-05-07T06:43:32;4.75;;;4.35;;
27495;SDS011;14929;51.336;9.416;2023-05-07T06:46:00;6.50;;;4.53;;
27495;SDS011;14929;51.336;9.416;2023-05-07T06:48:29;4.90;;;4.50;;
27495;SDS011;14929;51.336;9.416;2023-05-07T06:50:56;4.63;;;4.22;;
27495;SDS011;14929;51.336;9.416;2023-05-07T06:53:24;5.20;;;4.70;;
27495;SDS011;14929;51.336;9.416;2023-05-07T06:55:53;5.50;;;5.00;;
27495;SDS011;14929;51.336;9.416;2023-05-07T06:58:20;5.15;;;4.65;;
27495;SDS011;14929;51.336;9.416;2023-05-07T07:00:48;4.93;;;4.30;;
27495;SDS011;14929;51.336;9.416;2023-05-07T07:03:15;5.38;;;4.90;;
27495;SDS011;14929;51.336;9.416;2023-05-07T07:05:44;5.20;;;4.45;;
27495;SDS011;14929;51.336;9.416;2023-05-07T07:08:12;5.38;;;4.88;;
27495;SDS011;14929;51.336;9.416;2023-05-07T07:10:39;6.40;;;5.38;;
27495;SDS011;14929;51.336;9.416;2023-05-07T07:13:08;4.82;;;4.43;;
27495;SDS011;14929;51.336;9.416;2023-05-07T07:15:36;5.65;;;4.90;;
27495;SDS011;14929;51.336;9.416;2023-05-07T07:18:04;5.20;;;4.70;;
27495;SDS011;14929;51.336;9.416;2023-05-07T07:20:32;6.35;;;5.53;;
27495;SDS011;14929;51.336;9.416;2023-05-07T07:23:01;4.78;;;4.38;;
27495;SDS011;14929;51.336;9.416;2023-05-07T07:25:28;4.90;;;4.50;;
27495;SDS011;14929;51.336;9.416;2023-05-07T07:27:56;5.85;;;5.25;;
27495;SDS011;14929;51.336;9.416;2023-05-07T07:30:23;5.70;;;5.00;;
27495;SDS011;14929;51.336;9.416;2023-05-07T07:32:51;5.15;;;4.75;;
27495;SDS011;14929;51.336;9.416;2023-05-07T07:35:18;6.13;;;5.53;;
27495;SDS011;14929;51.336;9.416;2023-05-07T07:37:46;6.00;;;5.20;;
27495;SDS011;14929;51.336;9.416;2023-05-07T07:40:17;6.20;;;5.60;;
27495;SDS011;14929;51.336;9.416;2023-05-07T07:42:44;5.35;;;4.85;;
27495;SDS011;14929;51.336;9.416;2023-05-07T07:45:12;6.40;;;5.25;;
27495;SDS011;14929;51.336;9.416;2023-05-07T07:47:39;4.82;;;4.43;;
27495;SDS011;14929;51.336;9.416;2023-05-07T07:50:07;6.60;;;6.03;;
27495;SDS011;14929;51.336;9.416;2023-05-07T07:52:36;5.53;;;5.00;;
27495;SDS011;14929;51.336;9.416;2023-05-07T07:55:03;5.70;;;5.18;;
27495;SDS011;14929;51.336;9.416;2023-05-07T07:57:34;4.30;;;4.00;;
27495;SDS011;14929;51.336;9.416;2023-05-07T08:00:01;5.72;;;5.13;;
27495;SDS011;14929;51.336;9.416;2023-05-07T08:02:31;6.10;;;5.50;;
27495;SDS011;14929;51.336;9.416;2023-05-07T08:04:58;5.20;;;4.65;;
27495;SDS011;14929;51.336;9.416;2023-05-07T08:07:26;5.88;;;5.38;;
27495;SDS011;14929;51.336;9.416;2023-05-07T08:09:53;5.28;;;4.78;;
27495;SDS011;14929;51.336;9.416;2023-05-07T08:12:21;5.13;;;4.63;;
27495;SDS011;14929;51.336;9.416;2023-05-07T08:14:50;5.80;;;5.20;;
27495;SDS011;14929;51.336;9.416;2023-05-07T08:17:17;5.15;;;4.65;;
27495;SDS011;14929;51.336;9.416;2023-05-07T08:19:47;5.90;;;5.22;;
27495;SDS011;14929;51.336;9.416;2023-05-07T08:22:14;4.93;;;4.47;;
27495;SDS011;14929;51.336;9.416;2023-05-07T08:24:45;6.30;;;5.30;;
27495;SDS011;14929;51.336;9.416;2023-05-07T08:27:18;5.32;;;4.93;;
27495;SDS011;14929;51.336;9.416;2023-05-07T08:29:46;6.07;;;5.57;;
27495;SDS011;14929;51.336;9.416;2023-05-07T08:32:15;5.82;;;5.32;;
27495;SDS011;14929;51.336;9.416;2023-05-07T08:34:46;5.13;;;4.63;;
27495;SDS011;14929;51.336;9.416;2023-05-07T08:37:21;5.53;;;5.00;;
27495;SDS011;14929;51.336;9.416;2023-05-07T08:39:49;5.75;;;5.18;;
27495;SDS011;14929;51.336;9.416;2023-05-07T08:42:17;5.57;;;5.05;;
27495;SDS011;14929;51.336;9.416;2023-05-07T08:44:45;6.72;;;6.10;;
27495;SDS011;14929;51.336;9.416;2023-05-07T08:47:13;4.93;;;4.35;;
27495;SDS011;14929;51.336;9.416;2023-05-07T08:49:42;5.70;;;5.20;;
27495;SDS011;14929;51.336;9.416;2023-05-07T08:52:09;5.03;;;4.53;;
27495;SDS011;14929;51.336;9.416;2023-05-07T08:54:37;6.00;;;5.47;;
27495;SDS011;14929;51.336;9.416;2023-05-07T08:57:05;5.07;;;4.53;;
27495;SDS011;14929;51.336;9.416;2023-05-07T08:59:33;5.40;;;4.90;;
27495;SDS011;14929;51.336;9.416;2023-05-07T09:02:01;7.75;;;4.38;;
27495;SDS011;14929;51.336;9.416;2023-05-07T09:04:30;5.32;;;4.82;;
27495;SDS011;14929;51.336;9.416;2023-05-07T09:06:58;4.35;;;3.95;;
27495;SDS011;14929;51.336;9.416;2023-05-07T09:09:31;5.10;;;4.60;;
27495;SDS011;14929;51.336;9.416;2023-05-07T09:11:59;5.55;;;5.05;;
27495;SDS011;14929;51.336;9.416;2023-05-07T09:14:28;4.68;;;4.28;;
27495;SDS011;14929;51.336;9.416;2023-05-07T09:16:56;4.82;;;4.43;;
27495;SDS011;14929;51.336;9.416;2023-05-07T09:19:23;4.30;;;3.90;;
27495;SDS011;14929;51.336;9.416;2023-05-07T09:21:58;4.20;;;3.90;;
27495;SDS011;14929;51.336;9.416;2023-05-07T09:24:27;5.00;;;4.53;;
27495;SDS011;14929;51.336;9.416;2023-05-07T09:26:59;4.57;;;4.18;;
27495;SDS011;14929;51.336;9.416;2023-05-07T09:29:27;4.63;;;4.22;;
27495;SDS011;14929;51.336;9.416;2023-05-07T09:32:00;4.53;;;4.13;;
27495;SDS011;14929;51.336;9.416;2023-05-07T09:34:28;4.30;;;3.90;;
27495;SDS011;14929;51.336;9.416;2023-05-07T09:36:56;3.60;;;3.30;;
27495;SDS011;14929;51.336;9.416;2023-05-07T09:39:26;2.35;;;2.15;;
27495;SDS011;14929;51.336;9.416;2023-05-07T09:41:54;3.67;;;3.38;;
27495;SDS011;14929;51.336;9.416;2023-05-07T09:44:24;3.08;;;2.80;;
27495;SDS011;14929;51.336;9.416;2023-05-07T09:46:53;5.28;;;4.55;;
27495;SDS011;14929;51.336;9.416;2023-05-07T09:49:22;4.40;;;4.00;;
27495;SDS011;14929;51.336;9.416;2023-05-07T09:51:51;3.40;;;3.00;;
27495;SDS011;14929;51.336;9.416;2023-05-07T09:54:21;4.10;;;3.80;;
27495;SDS011;14929;51.336;9.416;2023-05-07T09:56:49;3.63;;;3.33;;
27495;SDS011;14929;51.336;9.416;2023-05-07T09:59:16;3.83;;;3.53;;
27495;SDS011;14929;51.336;9.416;2023-05-07T10:01:44;3.20;;;2.88;;
27495;SDS011;14929;51.336;9.416;2023-05-07T10:04:12;2.95;;;2.75;;
27495;SDS011;14929;51.336;9.416;2023-05-07T10:06:39;3.03;;;2.83;;
27495;SDS011;14929;51.336;9.416;2023-05-07T10:09:08;3.85;;;3.25;;
27495;SDS011;14929;51.336;9.416;2023-05-07T10:11:37;3.20;;;3.00;;
27495;SDS011;14929;51.336;9.416;2023-05-07T10:14:05;3.97;;;3.67;;
27495;SDS011;14929;51.336;9.416;2023-05-07T10:16:34;3.03;;;2.83;;
27495;SDS011;14929;51.336;9.416;2023-05-07T10:19:02;2.67;;;2.47;;
27495;SDS011;14929;51.336;9.416;2023-05-07T10:21:30;3.33;;;3.03;;
27495;SDS011;14929;51.336;9.416;2023-05-07T10:23:59;2.70;;;2.50;;
27495;SDS011;14929;51.336;9.416;2023-05-07T10:26:31;2.10;;;2.00;;
27495;SDS011;14929;51.336;9.416;2023-05-07T10:29:02;2.22;;;2.13;;
27495;SDS011;14929;51.336;9.416;2023-05-07T10:31:43;2.40;;;2.22;;
27495;SDS011;14929;51.336;9.416;2023-05-07T10:34:21;2.30;;;2.10;;
27495;SDS011;14929;51.336;9.416;2023-05-07T10:36:50;3.53;;;2.75;;
27495;SDS011;14929;51.336;9.416;2023-05-07T10:39:19;2.50;;;2.30;;
27495;SDS011;14929;51.336;9.416;2023-05-07T10:41:47;1.90;;;1.80;;
27495;SDS011;14929;51.336;9.416;2023-05-07T10:44:25;2.50;;;2.30;;
27495;SDS011;14929;51.336;9.416;2023-05-07T10:47:06;1.95;;;1.85;;
27495;SDS011;14929;51.336;9.416;2023-05-07T10:49:35;2.33;;;1.90;;
27495;SDS011;14929;51.336;9.416;2023-05-07T10:52:13;2.40;;;2.20;;
27495;SDS011;14929;51.336;9.416;2023-05-07T10:54:42;2.42;;;2.20;;
27495;SDS011;14929;51.336;9.416;2023-05-07T11:00:21;2.20;;;1.98;;
27495;SDS011;14929;51.336;9.416;2023-05-07T11:03:11;3.08;;;1.85;;
27495;SDS011;14929;51.336;9.416;2023-05-07T11:05:39;2.22;;;1.98;;
27495;SDS011;14929;51.336;9.416;2023-05-07T11:08:08;2.28;;;2.17;;
27495;SDS011;14929;51.336;9.416;2023-05-07T11:10:47;2.13;;;1.92;;
27495;SDS011;14929;51.336;9.416;2023-05-07T11:13:40;2.58;;;2.38;;
27495;SDS011;14929;51.336;9.416;2023-05-07T11:16:18;3.00;;;2.30;;
27495;SDS011;14929;51.336;9.416;2023-05-07T11:18:48;2.53;;;2.33;;
27495;SDS011;14929;51.336;9.416;2023-05-07T11:21:33;2.10;;;2.00;;
27495;SDS011;14929;51.336;9.416;2023-05-07T11:24:02;3.28;;;2.97;;
27495;SDS011;14929;51.336;9.416;2023-05-07T11:26:31;3.38;;;3.08;;
27495;SDS011;14929;51.336;9.416;2023-05-07T11:29:13;2.35;;;2.15;;
27495;SDS011;14929;51.336;9.416;2023-05-07T11:31:44;2.70;;;2.50;;
27495;SDS011;14929;51.336;9.416;2023-05-07T11:34:20;2.20;;;2.10;;
27495;SDS011;14929;51.336;9.416;2023-05-07T11:36:49;2.05;;;1.95;;
27495;SDS011;14929;51.336;9.416;2023-05-07T11:39:26;2.42;;;2.22;;
27495;SDS011;14929;51.336;9.416;2023-05-07T11:41:55;3.38;;;2.65;;
27495;SDS011;14929;51.336;9.416;2023-05-07T11:44:23;3.13;;;2.88;;
27495;SDS011;14929;51.336;9.416;2023-05-07T11:46:52;3.10;;;2.83;;
27495;SDS011;14929;51.336;9.416;2023-05-07T11:49:19;2.85;;;2.55;;
27495;SDS011;14929;51.336;9.416;2023-05-07T11:51:46;3.53;;;3.22;;
27495;SDS011;14929;51.336;9.416;2023-05-07T11:54:17;3.70;;;3.40;;
27495;SDS011;14929;51.336;9.416;2023-05-07T11:56:46;4.15;;;3.10;;
27495;SDS011;14929;51.336;9.416;2023-05-07T11:59:16;2.55;;;2.45;;
27495;SDS011;14929;51.336;9.416;2023-05-07T12:01:45;3.20;;;2.90;;
27495;SDS011;14929;51.336;9.416;2023-05-07T12:04:16;3.33;;;3.13;;
27495;SDS011;14929;51.336;9.416;2023-05-07T12:06:46;2.55;;;2.40;;
27495;SDS011;14929;51.336;9.416;2023-05-07T12:09:15;3.42;;;3.15;;
27495;SDS011;14929;51.336;9.416;2023-05-07T12:11:45;3.78;;;3.47;;
27495;SDS011;14929;51.336;9.416;2023-05-07T12:14:13;3.88;;;3.40;;
27495;SDS011;14929;51.336;9.416;2023-05-07T12:16:41;2.75;;;2.55;;
27495;SDS011;14929;51.336;9.416;2023-05-07T12:19:09;3.35;;;3.05;;
27495;SDS011;14929;51.336;9.416;2023-05-07T12:21:39;4.15;;;3.72;;
27495;SDS011;14929;51.336;9.416;2023-05-07T12:24:07;3.20;;;3.00;;
27495;SDS011;14929;51.336;9.416;2023-05-07T12:26:37;3.38;;;3.13;;
27495;SDS011;14929;51.336;9.416;2023-05-07T12:29:05;4.85;;;3.67;;
27495;SDS011;14929;51.336;9.416;2023-05-07T12:31:33;3.40;;;3.10;;
27495;SDS011;14929;51.336;9.416;2023-05-07T12:34:00;3.40;;;3.17;;
27495;SDS011;14929;51.336;9.416;2023-05-07T12:36:35;3.95;;;3.50;;
27495;SDS011;14929;51.336;9.416;2023-05-07T12:39:05;4.35;;;3.97;;
27495;SDS011;14929;51.336;9.416;2023-05-07T12:41:35;3.50;;;3.30;;
27495;SDS011;14929;51.336;9.416;2023-05-07T12:44:18;4.25;;;3.85;;
27495;SDS011;14929;51.336;9.416;2023-05-07T12:46:46;4.43;;;4.13;;
27495;SDS011;14929;51.336;9.416;2023-05-07T12:49:14;3.92;;;3.42;;
27495;SDS011;14929;51.336;9.416;2023-05-07T12:51:43;4.00;;;3.63;;
27495;SDS011;14929;51.336;9.416;2023-05-07T12:54:11;3.88;;;3.58;;
27495;SDS011;14929;51.336;9.416;2023-05-07T12:56:39;3.80;;;3.50;;
27495;SDS011;14929;51.336;9.416;2023-05-07T12:59:07;4.38;;;3.97;;
27495;SDS011;14929;51.336;9.416;2023-05-07T13:01:34;3.97;;;3.67;;
27495;SDS011;14929;51.336;9.416;2023-05-07T13:04:02;4.50;;;4.10;;
27495;SDS011;14929;51.336;9.416;2023-05-07T13:06:30;4.65;;;4.25;;
27495;SDS011;14929;51.336;9.416;2023-05-07T13:08:58;4.72;;;4.32;;
27495;SDS011;14929;51.336;9.416;2023-05-07T13:11:27;7.03;;;4.57;;
27495;SDS011;14929;51.336;9.416;2023-05-07T13:13:54;3.85;;;3.55;;
27495;SDS011;14929;51.336;9.416;2023-05-07T13:16:22;4.70;;;4.30;;
27495;SDS011;14929;51.336;9.416;2023-05-07T13:18:49;3.63;;;3.42;;
27495;SDS011;14929;51.336;9.416;2023-05-07T13:21:17;4.45;;;4.03;;
27495;SDS011;14929;51.336;9.416;2023-05-07T13:23:44;3.45;;;3.15;;
27495;SDS011;14929;51.336;9.416;2023-05-07T13:26:12;4.35;;;4.03;;
27495;SDS011;14929;51.336;9.416;2023-05-07T13:28:41;4.57;;;4.18;;
27495;SDS011;14929;51.336;9.416;2023-05-07T13:31:08;4.55;;;4.20;;
27495;SDS011;14929;51.336;9.416;2023-05-07T13:33:36;5.45;;;4.97;;
27495;SDS011;14929;51.336;9.416;2023-05-07T13:36:03;5.18;;;4.72;;
27495;SDS011;14929;51.336;9.416;2023-05-07T13:38:32;4.60;;;4.10;;
27495;SDS011;14929;51.336;9.416;2023-05-07T13:40:59;5.50;;;4.75;;
27495;SDS011;14929;51.336;9.416;2023-05-07T13:43:27;4.43;;;4.03;;
27495;SDS011;14929;51.336;9.416;2023-05-07T13:45:55;5.50;;;5.00;;
27495;SDS011;14929;51.336;9.416;2023-05-07T13:48:23;4.35;;;4.05;;
27495;SDS011;14929;51.336;9.416;2023-05-07T13:50:50;4.50;;;4.15;;
27495;SDS011;14929;51.336;9.416;2023-05-07T13:53:18;5.38;;;4.90;;
27495;SDS011;14929;51.336;9.416;2023-05-07T13:55:46;5.57;;;4.97;;
27495;SDS011;14929;51.336;9.416;2023-05-07T13:58:13;4.50;;;3.88;;
27495;SDS011;14929;51.336;9.416;2023-05-07T14:00:40;4.18;;;3.78;;
27495;SDS011;14929;51.336;9.416;2023-05-07T14:03:10;4.82;;;4.43;;
27495;SDS011;14929;51.336;9.416;2023-05-07T14:05:37;5.05;;;4.55;;
27495;SDS011;14929;51.336;9.416;2023-05-07T14:08:05;4.80;;;4.50;;
27495;SDS011;14929;51.336;9.416;2023-05-07T14:10:33;5.10;;;4.70;;
27495;SDS011;14929;51.336;9.416;2023-05-07T14:13:00;4.93;;;4.53;;
27495;SDS011;14929;51.336;9.416;2023-05-07T14:15:28;4.85;;;4.45;;
27495;SDS011;14929;51.336;9.416;2023-05-07T14:17:57;4.43;;;4.03;;
27495;SDS011;14929;51.336;9.416;2023-05-07T14:20:27;5.82;;;5.13;;
27495;SDS011;14929;51.336;9.416;2023-05-07T14:22:55;6.10;;;5.47;;
27495;SDS011;14929;51.336;9.416;2023-05-07T14:25:23;5.70;;;5.20;;
27495;SDS011;14929;51.336;9.416;2023-05-07T14:27:50;4.57;;;4.22;;
27495;SDS011;14929;51.336;9.416;2023-05-07T14:30:18;4.20;;;3.88;;
27495;SDS011;14929;51.336;9.416;2023-05-07T14:32:47;5.53;;;5.03;;
27495;SDS011;14929;51.336;9.416;2023-05-07T14:35:14;5.57;;;4.28;;
27495;SDS011;14929;51.336;9.416;2023-05-07T14:37:43;5.28;;;4.78;;
27495;SDS011;14929;51.336;9.416;2023-05-07T14:40:11;5.60;;;5.10;;
27495;SDS011;14929;51.336;9.416;2023-05-07T14:42:39;4.43;;;4.13;;
27495;SDS011;14929;51.336;9.416;2023-05-07T14:45:08;5.03;;;4.55;;
27495;SDS011;14929;51.336;9.416;2023-05-07T14:47:36;5.38;;;4.88;;
27495;SDS011;14929;51.336;9.416;2023-05-07T14:50:04;4.97;;;4.47;;
27495;SDS011;14929;51.336;9.416;2023-05-07T14:52:32;5.07;;;4.32;;
27495;SDS011;14929;51.336;9.416;2023-05-07T14:55:01;5.00;;;4.55;;
27495;SDS011;14929;51.336;9.416;2023-05-07T14:57:29;4.50;;;4.00;;